createdAt,value
2018-02-19T00:02:02.071Z,42.88
2018-02-19T00:04:28.573Z,40.90
2018-02-19T00:06:55.757Z,45.17
2018-02-19T00:09:22.199Z,49.67
2018-02-19T00:11:48.617Z,41.50
2018-02-19T00:14:15.095Z,41.83
2018-02-19T00:16:41.581Z,53.65
2018-02-19T00:19:08.062Z,47.28
2018-02-19T00:21:34.440Z,46.63
2018-02-19T00:24:00.845Z,48.28
2018-02-19T00:26:27.549Z,41.90
2018-02-19T00:28:53.976Z,41.92
2018-02-19T00:31:20.420Z,39.97
2018-02-19T00:33:46.902Z,56.95
2018-02-19T00:36:13.400Z,37.42
2018-02-19T00:38:39.804Z,51.08
2018-02-19T00:41:06.270Z,40.30
2018-02-19T00:43:32.688Z,36.67
2018-02-19T00:45:59.166Z,41.05
2018-02-19T00:48:25.639Z,43.90
2018-02-19T00:50:52.662Z,51.10
2018-02-19T00:53:19.137Z,36.10
2018-02-19T00:55:45.611Z,51.25
2018-02-19T00:58:12.783Z,51.33
2018-02-19T01:00:39.969Z,35.17
2018-02-19T01:03:06.406Z,36.53
2018-02-19T01:05:32.870Z,50.83
2018-02-19T01:07:59.388Z,38.03
2018-02-19T01:10:25.820Z,48.95
2018-02-19T01:12:53.302Z,38.88
2018-02-19T01:15:20.541Z,44.87
2018-02-19T01:17:47.700Z,46.37
2018-02-19T01:20:14.117Z,44.63
2018-02-19T01:22:40.535Z,45.67
2018-02-19T01:25:07.018Z,33.07
2018-02-19T01:27:33.506Z,41.00
2018-02-19T01:29:59.929Z,40.43
2018-02-19T01:32:26.371Z,37.08
2018-02-19T01:34:52.856Z,36.33
2018-02-19T01:37:19.288Z,41.67
2018-02-19T01:39:45.715Z,47.73
2018-02-19T01:42:12.129Z,34.63
2018-02-19T01:44:39.324Z,45.53
2018-02-19T01:47:05.912Z,46.60
2018-02-19T01:49:32.400Z,36.30
2018-02-19T01:51:58.906Z,45.12
2018-02-19T01:54:25.441Z,37.60
2018-02-19T01:56:51.909Z,46.57
2018-02-19T01:59:18.341Z,35.33
2018-02-19T02:01:44.810Z,41.47
2018-02-19T02:04:12.007Z,38.77
2018-02-19T02:06:38.467Z,41.17
2018-02-19T02:09:05.344Z,50.95
2018-02-19T02:11:31.771Z,41.73
2018-02-19T02:13:58.178Z,49.50
2018-02-19T02:16:24.613Z,38.38
2018-02-19T02:18:51.779Z,52.47
2018-02-19T02:21:18.259Z,46.83
2018-02-19T02:23:44.755Z,41.78
2018-02-19T02:26:11.275Z,43.28
2018-02-19T02:28:37.727Z,37.83
2018-02-19T02:31:04.663Z,48.70
2018-02-19T02:33:31.975Z,44.30
2018-02-19T02:35:58.821Z,43.35
2018-02-19T02:38:25.563Z,37.45
2018-02-19T02:40:52.031Z,43.80
2018-02-19T02:43:18.589Z,41.28
2018-02-19T02:45:45.024Z,42.42
2018-02-19T02:48:12.171Z,45.85
2018-02-19T02:50:38.605Z,41.85
2018-02-19T02:53:05.531Z,48.65
2018-02-19T02:55:32.019Z,43.42
2018-02-19T02:57:58.497Z,47.45
2018-02-19T03:00:24.964Z,45.35
2018-02-19T03:02:51.450Z,43.47
2018-02-19T03:05:18.692Z,37.58
2018-02-19T03:07:45.257Z,37.58
2018-02-19T03:10:12.434Z,42.55
2018-02-19T03:12:38.886Z,37.55
2018-02-19T03:15:05.535Z,41.33
2018-02-19T03:17:31.978Z,55.50
2018-02-19T03:19:58.423Z,40.65
2018-02-19T03:22:24.824Z,43.10
2018-02-19T03:24:52.040Z,47.15
2018-02-19T03:27:19.422Z,46.70
2018-02-19T03:29:45.880Z,47.40
2018-02-19T03:32:12.450Z,55.80
2018-02-19T03:34:40.233Z,50.03
2018-02-19T03:37:07.410Z,42.33
2018-02-19T03:39:33.830Z,46.83
2018-02-19T03:42:01.009Z,45.45
2018-02-19T03:44:27.439Z,57.13
2018-02-19T03:46:53.903Z,48.00
2018-02-19T03:49:20.313Z,41.97
2018-02-19T03:51:46.742Z,45.95
2018-02-19T03:54:13.282Z,54.08
2018-02-19T03:56:40.736Z,48.23
2018-02-19T03:59:07.242Z,52.85
2018-02-19T04:01:33.739Z,47.95
2018-02-19T04:04:00.961Z,43.00
2018-02-19T04:06:27.447Z,45.42
2018-02-19T04:08:53.896Z,56.20
2018-02-19T04:11:21.110Z,48.47
2018-02-19T04:13:47.640Z,49.83
2018-02-19T04:16:15.587Z,41.13
2018-02-19T04:18:42.048Z,47.37
2018-02-19T04:21:08.593Z,49.80
2018-02-19T04:23:35.094Z,46.77
2018-02-19T04:26:01.549Z,48.47
2018-02-19T04:28:28.806Z,57.58
2018-02-19T04:30:55.259Z,41.28
2018-02-19T04:33:21.701Z,45.95
2018-02-19T04:35:48.156Z,52.75
2018-02-19T04:38:14.912Z,38.70
2018-02-19T04:40:42.121Z,45.83
2018-02-19T04:43:08.635Z,34.00
2018-02-19T04:48:34.820Z,45.47
2018-02-19T04:51:01.268Z,42.27
2018-02-19T04:53:27.729Z,45.08
2018-02-19T04:55:54.175Z,48.10
2018-02-19T04:58:20.606Z,48.10
2018-02-19T05:00:47.059Z,47.25
2018-02-19T05:03:13.526Z,42.00
2018-02-19T05:05:39.961Z,34.65
2018-02-19T05:08:06.804Z,44.40
2018-02-19T05:10:33.228Z,58.90
2018-02-19T05:12:59.744Z,51.97
2018-02-19T05:15:26.216Z,44.17
2018-02-19T05:17:52.680Z,54.53
2018-02-19T05:20:19.107Z,45.40
2018-02-19T05:22:45.598Z,44.33
2018-02-19T05:25:12.121Z,39.35
2018-02-19T05:27:38.683Z,46.40
2018-02-19T05:30:05.527Z,51.20
2018-02-19T05:32:32.235Z,46.22
2018-02-19T05:34:58.671Z,49.78
2018-02-19T05:37:25.171Z,47.92
2018-02-19T05:39:53.149Z,49.50
2018-02-19T05:42:19.585Z,42.60
2018-02-19T05:44:46.247Z,56.35
2018-02-19T05:47:12.663Z,46.17
2018-02-19T05:49:39.103Z,48.60
2018-02-19T05:52:05.873Z,47.85
2018-02-19T05:54:33.091Z,38.80
2018-02-19T05:56:59.567Z,49.63
2018-02-19T05:59:26.164Z,41.95
2018-02-19T06:01:52.719Z,46.73
2018-02-19T06:04:19.863Z,62.07
2018-02-19T06:06:46.328Z,40.45
2018-02-19T06:09:12.768Z,42.53
2018-02-19T06:11:40.028Z,42.78
2018-02-19T06:14:06.943Z,46.70
2018-02-19T06:16:33.428Z,44.23
2018-02-19T06:18:59.925Z,39.97
2018-02-19T06:21:27.272Z,41.08
2018-02-19T06:23:54.008Z,46.35
2018-02-19T06:26:20.492Z,40.57
2018-02-19T06:28:47.046Z,41.70
2018-02-19T06:31:13.568Z,38.92
2018-02-19T06:33:40.046Z,47.88
2018-02-19T06:36:07.180Z,47.88
2018-02-19T06:38:34.419Z,48.47
2018-02-19T06:41:01.045Z,44.30
2018-02-19T06:43:27.512Z,44.83
2018-02-19T06:45:55.455Z,47.17
2018-02-19T06:48:21.986Z,41.33
2018-02-19T06:50:49.162Z,37.35
2018-02-19T06:53:15.579Z,43.87
2018-02-19T06:55:43.496Z,37.85
2018-02-19T06:58:09.974Z,43.80
2018-02-19T07:00:36.541Z,44.05
2018-02-19T07:03:03.290Z,52.03
2018-02-19T07:05:30.054Z,42.05
2018-02-19T07:07:57.255Z,35.75
2018-02-19T07:10:23.747Z,46.17
2018-02-19T07:12:50.211Z,38.93
2018-02-19T07:15:16.738Z,40.67
2018-02-19T07:17:44.027Z,43.73
2018-02-19T07:20:10.557Z,40.10
2018-02-19T07:22:37.103Z,39.43
2018-02-19T07:25:05.402Z,39.63
2018-02-19T07:27:32.047Z,42.50
2018-02-19T07:29:58.481Z,38.13
2018-02-19T07:32:25.082Z,45.93
2018-02-19T07:34:51.550Z,39.37
2018-02-19T07:37:17.970Z,45.00
2018-02-19T07:39:44.419Z,36.63
2018-02-19T07:42:10.897Z,36.57
2018-02-19T07:44:37.318Z,41.77
2018-02-19T07:47:04.482Z,40.93
2018-02-19T07:49:30.937Z,26.67
2018-02-19T07:51:57.351Z,34.73
2018-02-19T07:54:23.808Z,42.17
2018-02-19T07:56:50.208Z,37.40
2018-02-19T07:59:16.701Z,37.73
2018-02-19T08:01:43.223Z,33.60
2018-02-19T08:04:09.812Z,38.17
2018-02-19T08:06:37.040Z,31.33
2018-02-19T08:09:04.020Z,38.70
2018-02-19T08:11:31.751Z,30.50
2018-02-19T08:13:58.181Z,44.23
2018-02-19T08:16:24.591Z,39.40
2018-02-19T08:18:51.807Z,30.90
2018-02-19T08:21:19.080Z,40.30
2018-02-19T08:23:45.544Z,40.77
2018-02-19T08:26:12.039Z,36.63
2018-02-19T08:28:39.269Z,41.07
2018-02-19T08:31:06.237Z,40.63
2018-02-19T08:33:33.484Z,39.03
2018-02-19T08:36:00.751Z,33.13
2018-02-19T08:38:27.171Z,35.23
2018-02-19T08:40:53.700Z,34.70
2018-02-19T08:43:20.172Z,36.07
2018-02-19T08:45:47.432Z,31.30
2018-02-19T08:48:13.950Z,36.00
2018-02-19T08:50:40.428Z,34.50
2018-02-19T08:53:07.621Z,33.17
2018-02-19T08:55:34.046Z,34.47
2018-02-19T08:58:01.298Z,35.17
2018-02-19T09:00:28.782Z,37.30
2018-02-19T09:02:55.941Z,30.50
2018-02-19T09:05:23.115Z,32.07
2018-02-19T09:07:49.600Z,27.87
2018-02-19T09:10:16.051Z,36.03
2018-02-19T09:12:42.523Z,35.37
2018-02-19T09:15:08.963Z,39.20
2018-02-19T09:17:36.133Z,30.40
2018-02-19T09:20:02.981Z,30.00
2018-02-19T09:22:29.443Z,26.50
2018-02-19T09:24:55.879Z,48.10
2018-02-19T09:27:23.081Z,33.93
2018-02-19T09:29:49.560Z,27.80
2018-02-19T09:32:16.742Z,33.63
2018-02-19T09:34:50.871Z,29.90
2018-02-19T09:37:18.103Z,30.47
2018-02-19T09:39:45.316Z,33.83
2018-02-19T09:42:12.429Z,29.93
2018-02-19T09:44:38.247Z,31.47
2018-02-19T09:47:05.417Z,33.37
2018-02-19T09:49:31.809Z,43.90
2018-02-19T09:51:58.315Z,35.10
2018-02-19T09:54:25.474Z,36.63
2018-02-19T09:56:51.925Z,37.00
2018-02-19T09:59:18.455Z,39.23
2018-02-19T10:01:44.908Z,35.13
2018-02-19T10:04:12.074Z,32.07
2018-02-19T10:06:38.529Z,26.80
2018-02-19T10:09:04.987Z,33.03
2018-02-19T10:11:31.436Z,37.63
2018-02-19T10:13:58.056Z,35.30
2018-02-19T10:16:24.520Z,32.60
2018-02-19T10:18:50.945Z,36.47
2018-02-19T10:21:17.792Z,40.80
2018-02-19T10:23:44.229Z,33.10
2018-02-19T10:26:11.407Z,38.50
2018-02-19T10:28:38.324Z,42.30
2018-02-19T10:31:05.600Z,34.43
2018-02-19T10:33:32.017Z,31.80
2018-02-19T10:35:58.457Z,28.63
2018-02-19T10:38:24.907Z,34.47
2018-02-19T10:40:51.341Z,32.43
2018-02-19T10:43:17.794Z,38.87
2018-02-19T10:45:44.228Z,34.13
2018-02-19T10:48:10.657Z,41.80
2018-02-19T10:50:37.072Z,34.97
2018-02-19T10:53:03.608Z,33.07
2018-02-19T10:55:30.783Z,33.27
2018-02-19T10:57:57.920Z,33.73
2018-02-19T11:00:30.487Z,33.67
2018-02-19T11:02:57.058Z,37.47
2018-02-19T11:05:24.292Z,25.57
2018-02-19T11:07:50.726Z,29.57
2018-02-19T11:10:17.160Z,33.50
2018-02-19T11:12:43.603Z,37.53
2018-02-19T11:15:10.046Z,38.37
2018-02-19T11:17:36.458Z,38.37
2018-02-19T11:20:03.110Z,29.50
2018-02-19T11:22:29.534Z,29.63
2018-02-19T11:24:55.979Z,25.63
2018-02-19T11:27:22.496Z,37.53
2018-02-19T11:29:49.679Z,31.90
2018-02-19T11:32:16.875Z,32.50
2018-02-19T11:34:43.292Z,38.40
2018-02-19T11:37:09.815Z,33.67
2018-02-19T11:39:36.979Z,36.10
2018-02-19T11:42:04.204Z,30.50
2018-02-19T11:44:30.676Z,33.43
2018-02-19T11:46:58.604Z,33.97
2018-02-19T11:49:24.999Z,36.90
2018-02-19T11:51:51.563Z,34.90
2018-02-19T11:54:18.724Z,39.33
2018-02-19T11:56:45.892Z,27.40
2018-02-19T11:59:12.372Z,38.20
2018-02-19T12:01:38.803Z,34.33
2018-02-19T12:04:05.280Z,36.07
2018-02-19T12:06:31.689Z,33.60
2018-02-19T12:08:58.134Z,29.43
2018-02-19T12:11:24.584Z,46.10
2018-02-19T12:13:51.020Z,26.20
2018-02-19T12:16:17.473Z,32.17
2018-02-19T12:18:44.122Z,38.83
2018-02-19T12:21:10.584Z,33.13
2018-02-19T12:23:37.056Z,33.60
2018-02-19T12:26:03.538Z,36.47
2018-02-19T12:28:30.020Z,30.43
2018-02-19T12:30:56.406Z,44.17
2018-02-19T12:33:23.005Z,38.20
2018-02-19T12:35:49.520Z,35.80
2018-02-19T12:38:15.975Z,35.90
2018-02-19T12:40:42.477Z,30.67
2018-02-19T12:43:08.871Z,34.00
2018-02-19T12:45:35.346Z,38.17
2018-02-19T12:48:01.778Z,30.87
2018-02-19T12:50:28.397Z,36.20
2018-02-19T12:52:54.813Z,35.70
2018-02-19T12:55:21.337Z,32.57
2018-02-19T12:57:47.741Z,32.67
2018-02-19T13:00:14.182Z,32.00
2018-02-19T13:02:40.620Z,33.47
2018-02-19T13:05:07.893Z,34.33
2018-02-19T13:07:34.482Z,33.70
2018-02-19T13:10:01.656Z,36.83
2018-02-19T13:12:28.159Z,32.20
2018-02-19T13:14:54.837Z,36.10
2018-02-19T13:17:22.035Z,31.80
2018-02-19T13:19:48.501Z,29.80
2018-02-19T13:22:14.987Z,35.57
2018-02-19T13:24:41.418Z,27.10
2018-02-19T13:27:08.630Z,31.13
2018-02-19T13:29:35.440Z,30.00
2018-02-19T13:32:02.257Z,33.37
2018-02-19T13:34:28.827Z,37.70
2018-02-19T13:36:55.299Z,34.27
2018-02-19T13:39:21.931Z,36.83
2018-02-19T13:41:49.104Z,38.60
2018-02-19T13:44:16.329Z,38.67
2018-02-19T13:46:42.803Z,37.53
2018-02-19T13:49:10.027Z,33.63
2018-02-19T13:51:36.502Z,25.50
2018-02-19T13:54:05.468Z,30.53
2018-02-19T13:56:31.992Z,30.90
2018-02-19T13:58:58.424Z,28.70
2018-02-19T14:01:24.907Z,31.33
2018-02-19T14:03:52.191Z,31.97
2018-02-19T14:06:18.709Z,28.37
2018-02-19T14:08:46.644Z,31.73
2018-02-19T14:11:13.077Z,29.50
2018-02-19T14:13:40.396Z,33.30
2018-02-19T14:16:07.322Z,35.50
2018-02-19T14:18:34.088Z,31.20
2018-02-19T14:21:00.582Z,30.90
2018-02-19T14:23:27.847Z,32.63
2018-02-19T14:25:55.135Z,42.00
2018-02-19T14:28:21.850Z,33.70
2018-02-19T14:30:48.452Z,28.43
2018-02-19T14:33:15.012Z,27.63
2018-02-19T14:35:43.151Z,29.47
2018-02-19T14:38:11.320Z,29.63
2018-02-19T14:40:37.889Z,26.10
2018-02-19T14:43:05.996Z,29.77
2018-02-19T14:45:32.558Z,27.60
2018-02-19T14:47:59.660Z,28.03
2018-02-19T14:50:26.212Z,32.00
2018-02-19T14:52:53.537Z,37.73
2018-02-19T14:55:20.846Z,33.67
2018-02-19T14:57:47.592Z,30.50
2018-02-19T15:00:15.276Z,28.00
2018-02-19T15:02:42.700Z,25.87
2018-02-19T15:05:09.348Z,39.30
2018-02-19T15:07:36.105Z,32.40
2018-02-19T15:10:04.870Z,31.97
2018-02-19T15:12:32.822Z,32.73
2018-02-19T15:14:59.383Z,29.77
2018-02-19T15:17:26.480Z,34.30
2018-02-19T15:19:54.602Z,32.60
2018-02-19T15:22:21.507Z,32.40
2018-02-19T15:24:49.824Z,31.90
2018-02-19T15:27:16.556Z,25.87
2018-02-19T15:29:44.616Z,30.30
2018-02-19T15:32:12.808Z,34.50
2018-02-19T15:34:39.647Z,28.60
2018-02-19T15:37:06.336Z,33.90
2018-02-19T15:39:34.475Z,35.27
2018-02-19T15:42:01.562Z,34.40
2018-02-19T15:44:29.567Z,28.67
2018-02-19T15:47:02.114Z,26.30
2018-02-19T15:49:30.420Z,28.20
2018-02-19T15:51:59.183Z,31.97
2018-02-19T15:54:26.004Z,30.07
2018-02-19T15:56:58.190Z,28.97
2018-02-19T15:59:26.265Z,24.13
2018-02-19T16:01:54.523Z,29.80
2018-02-19T16:04:23.788Z,28.60
2018-02-19T16:06:51.662Z,22.80
2018-02-19T16:09:18.413Z,25.07
2018-02-19T16:11:50.254Z,24.60
2018-02-19T16:14:23.103Z,30.27
2018-02-19T16:16:50.681Z,31.07
2018-02-19T16:19:17.288Z,27.83
2018-02-19T16:21:45.511Z,25.13
2018-02-19T16:24:12.030Z,26.20
2018-02-19T16:26:39.200Z,28.40
2018-02-19T16:29:06.531Z,26.93
2018-02-19T16:31:33.144Z,34.30
2018-02-19T16:33:59.719Z,25.97
2018-02-19T16:36:26.364Z,27.10
2018-02-19T16:38:53.822Z,24.20
2018-02-19T16:41:25.961Z,28.40
2018-02-19T16:43:53.580Z,24.27
2018-02-19T16:46:20.492Z,24.73
2018-02-19T16:48:48.587Z,27.07
2018-02-19T16:51:16.449Z,26.77
2018-02-19T16:53:45.149Z,26.07
2018-02-19T16:56:12.187Z,28.33
2018-02-19T16:58:42.177Z,28.63
2018-02-19T17:01:13.069Z,27.30
2018-02-19T17:03:43.457Z,30.73
2018-02-19T17:06:11.435Z,27.07
2018-02-19T17:08:40.087Z,27.43
2018-02-19T17:11:12.942Z,32.17
2018-02-19T17:13:45.014Z,30.97
2018-02-19T17:16:13.912Z,34.00
2018-02-19T17:18:42.482Z,25.73
2018-02-19T17:21:10.198Z,27.97
2018-02-19T17:23:38.216Z,19.90
2018-02-19T17:26:05.950Z,42.60
2018-02-19T17:28:32.619Z,35.20
2018-02-19T17:30:59.195Z,24.77
2018-02-19T17:33:25.988Z,24.67
2018-02-19T17:35:52.589Z,29.30
2018-02-19T17:38:19.396Z,32.87
2018-02-19T17:40:46.256Z,28.13
2018-02-19T17:43:14.378Z,30.50
2018-02-19T17:45:41.162Z,31.00
2018-02-19T17:48:07.880Z,28.83
2018-02-19T17:50:35.402Z,32.00
2018-02-19T17:53:01.875Z,41.73
2018-02-19T17:55:28.292Z,35.17
2018-02-19T17:57:55.540Z,35.83
2018-02-19T18:00:22.095Z,37.37
2018-02-19T18:02:48.575Z,31.97
2018-02-19T18:05:15.027Z,30.23
2018-02-19T18:07:41.560Z,31.73
2018-02-19T18:10:08.168Z,25.27
2018-02-19T18:12:34.589Z,43.10
2018-02-19T18:15:01.037Z,32.77
2018-02-19T18:17:27.487Z,34.10
2018-02-19T18:19:54.687Z,26.17
2018-02-19T18:22:21.151Z,24.30
2018-02-19T18:24:47.623Z,27.47
2018-02-19T18:27:14.163Z,28.30
2018-02-19T18:29:41.475Z,30.13
2018-02-19T18:32:08.007Z,27.07
2018-02-19T18:34:34.487Z,31.70
2018-02-19T18:37:00.927Z,26.60
2018-02-19T18:39:27.368Z,31.53
2018-02-19T18:41:53.909Z,29.50
2018-02-19T18:44:20.508Z,30.53
2018-02-19T18:46:46.980Z,32.37
2018-02-19T18:49:13.433Z,35.37
2018-02-19T18:51:40.110Z,31.00
2018-02-19T18:54:06.622Z,30.00
2018-02-19T18:56:33.164Z,36.73
2018-02-19T18:59:00.383Z,31.30
2018-02-19T19:01:26.878Z,28.33
2018-02-19T19:03:53.299Z,27.97
2018-02-19T19:06:19.792Z,27.43
2018-02-19T19:08:58.449Z,36.80
2018-02-19T19:11:24.932Z,30.53
2018-02-19T19:13:52.406Z,29.53
2018-02-19T19:16:19.663Z,30.60
2018-02-19T19:18:46.115Z,40.77
2018-02-19T19:21:12.649Z,37.30
2018-02-19T19:23:39.106Z,32.47
2018-02-19T19:26:05.955Z,40.43
2018-02-19T19:28:33.173Z,40.37
2018-02-19T19:30:59.657Z,44.07
2018-02-19T19:33:26.100Z,50.20
2018-02-19T19:35:54.033Z,45.03
2018-02-19T19:38:20.532Z,37.33
2018-02-19T19:40:47.767Z,92.03
2018-02-19T19:43:14.207Z,45.83
2018-02-19T19:45:40.776Z,42.13
2018-02-19T19:48:08.076Z,49.17
2018-02-19T19:50:34.603Z,33.30
2018-02-19T19:53:01.976Z,42.57
2018-02-19T19:55:29.368Z,43.37
2018-02-19T19:57:56.532Z,33.30
2018-02-19T20:00:22.976Z,34.73
2018-02-19T20:02:49.689Z,36.53
2018-02-19T20:05:16.116Z,32.13
2018-02-19T20:07:43.319Z,37.67
2018-02-19T20:10:10.545Z,34.83
2018-02-19T20:12:37.069Z,34.70
2018-02-19T20:15:04.156Z,35.30
2018-02-19T20:17:30.702Z,39.77
2018-02-19T20:19:57.908Z,32.10
2018-02-19T20:22:24.340Z,40.80
2018-02-19T20:24:51.586Z,44.80
2018-02-19T20:27:18.071Z,44.97
2018-02-19T20:29:44.606Z,47.23
2018-02-19T20:32:11.098Z,35.50
2018-02-19T20:34:38.575Z,37.87
2018-02-19T20:37:05.516Z,39.53
2018-02-19T20:39:31.944Z,35.33
2018-02-19T20:41:58.392Z,42.57
2018-02-19T20:44:24.860Z,43.80
2018-02-19T20:46:51.302Z,56.40
2018-02-19T20:49:18.734Z,64.77
2018-02-19T20:51:45.191Z,42.33
2018-02-19T20:54:11.668Z,54.73
2018-02-19T20:56:38.091Z,50.67
2018-02-19T20:59:05.042Z,53.73
2018-02-19T21:01:31.502Z,54.10
2018-02-19T21:03:58.022Z,72.53
2018-02-19T21:06:24.467Z,55.90
2018-02-19T21:08:50.951Z,35.83
2018-02-19T21:11:18.211Z,44.47
2018-02-19T21:13:45.440Z,49.93
2018-02-19T21:16:12.000Z,46.80
2018-02-19T21:18:38.547Z,48.30
2018-02-19T21:21:05.763Z,47.23
2018-02-19T21:23:32.447Z,51.07
2018-02-19T21:25:59.032Z,39.90
2018-02-19T21:28:25.487Z,37.70
2018-02-19T21:30:51.976Z,32.63
2018-02-19T21:33:18.413Z,47.23
2018-02-19T21:35:44.934Z,33.00
2018-02-19T21:38:12.102Z,43.03
2018-02-19T21:40:38.591Z,35.93
2018-02-19T21:43:05.633Z,41.37
2018-02-19T21:45:32.052Z,32.80
2018-02-19T21:47:58.539Z,35.57
2018-02-19T21:50:25.728Z,36.37
2018-02-19T21:52:52.227Z,31.73
2018-02-19T21:55:18.635Z,35.00
2018-02-19T21:57:45.103Z,36.93
2018-02-19T22:00:11.574Z,38.90
2018-02-19T22:02:37.993Z,36.23
2018-02-19T22:05:04.858Z,38.37
2018-02-19T22:07:31.995Z,41.03
2018-02-19T22:09:58.451Z,61.97
2018-02-19T22:12:24.908Z,59.53
2018-02-19T22:14:51.445Z,50.73
2018-02-19T22:17:18.688Z,50.50
2018-02-19T22:19:45.919Z,45.13
2018-02-19T22:22:12.374Z,43.90
2018-02-19T22:24:38.852Z,42.00
2018-02-19T22:27:05.434Z,40.00
2018-02-19T22:29:31.954Z,34.33
2018-02-19T22:31:59.200Z,44.30
2018-02-19T22:34:25.759Z,39.03
2018-02-19T22:36:52.164Z,37.03
2018-02-19T22:39:18.643Z,32.27
2018-02-19T22:41:45.180Z,39.50
2018-02-19T22:44:12.441Z,44.73
2018-02-19T22:46:39.764Z,44.53
2018-02-19T22:49:06.248Z,37.50
2018-02-19T22:51:32.800Z,31.87
2018-02-19T22:53:59.538Z,38.37
2018-02-19T22:56:25.956Z,39.33
2018-02-19T22:58:52.387Z,38.23
2018-02-19T23:01:18.843Z,38.60
2018-02-19T23:03:45.327Z,38.70
2018-02-19T23:06:11.883Z,59.90
2018-02-19T23:08:38.314Z,41.37
2018-02-19T23:11:05.281Z,42.50
2018-02-19T23:13:31.712Z,38.77
2018-02-19T23:15:58.173Z,50.13
2018-02-19T23:18:24.596Z,42.90
2018-02-19T23:20:51.257Z,41.57
2018-02-19T23:23:17.671Z,45.50
2018-02-19T23:25:44.156Z,52.83
2018-02-19T23:28:10.615Z,40.93
2018-02-19T23:30:37.784Z,34.03
2018-02-19T23:33:05.123Z,34.57
2018-02-19T23:35:32.360Z,33.43
2018-02-19T23:37:58.770Z,43.50
2018-02-19T23:40:25.266Z,38.30
2018-02-19T23:42:51.731Z,51.40
2018-02-19T23:45:18.568Z,37.47
2018-02-19T23:47:45.024Z,39.70
2018-02-19T23:50:11.559Z,35.57
2018-02-19T23:52:38.033Z,38.67
2018-02-19T23:55:04.875Z,38.47
2018-02-19T23:57:32.082Z,39.10
2018-02-19T23:59:58.510Z,41.80
